createdAt,value
2023-03-02T00:00:01.840Z,23.13
2023-03-02T00:02:29.103Z,22.07
2023-03-02T00:04:55.450Z,20.37
2023-03-02T00:07:21.742Z,21.37
2023-03-02T00:09:48.057Z,21.17
2023-03-02T00:12:14.398Z,21.53
2023-03-02T00:14:40.825Z,21.17
2023-03-02T00:17:08.126Z,21.13
2023-03-02T00:19:34.594Z,20.47
2023-03-02T00:22:00.968Z,21.70
2023-03-02T00:24:27.293Z,21.53
2023-03-02T00:26:53.653Z,23.57
2023-03-02T00:29:19.989Z,23.30
2023-03-02T00:31:46.453Z,23.60
2023-03-02T00:34:12.794Z,25.27
2023-03-02T00:36:39.146Z,24.17
2023-03-02T00:39:05.726Z,23.27
2023-03-02T00:41:32.059Z,22.53
2023-03-02T00:43:58.356Z,24.30
2023-03-02T00:46:24.704Z,25.77
2023-03-02T00:48:51.059Z,26.53
2023-03-02T00:51:17.817Z,25.10
2023-03-02T00:53:44.148Z,25.13
2023-03-02T00:56:10.465Z,25.30
2023-03-02T00:58:36.815Z,24.73
2023-03-02T01:01:03.150Z,23.27
2023-03-02T01:03:29.566Z,24.13
2023-03-02T01:05:56.441Z,23.33
2023-03-02T01:08:22.987Z,23.70
2023-03-02T01:10:49.345Z,22.83
2023-03-02T01:13:15.729Z,23.67
2023-03-02T01:15:42.024Z,22.80
2023-03-02T01:18:08.321Z,22.40
2023-03-02T01:20:34.639Z,22.63
2023-03-02T01:23:00.991Z,23.23
2023-03-02T01:25:27.299Z,23.50
2023-03-02T01:27:53.607Z,21.57
2023-03-02T01:30:19.927Z,21.17
2023-03-02T01:32:46.285Z,22.23
2023-03-02T01:35:12.634Z,21.67
2023-03-02T01:37:38.929Z,21.70
2023-03-02T01:40:06.853Z,21.97
2023-03-02T01:42:33.182Z,21.70
2023-03-02T01:44:59.594Z,23.57
2023-03-02T01:47:25.929Z,23.53
2023-03-02T01:49:52.313Z,22.77
2023-03-02T01:52:18.644Z,22.90
2023-03-02T01:54:45.006Z,24.40
2023-03-02T01:57:11.399Z,23.77
2023-03-02T01:59:37.710Z,23.10
2023-03-02T02:02:04.046Z,22.27
2023-03-02T02:04:30.378Z,23.07
2023-03-02T02:06:56.690Z,23.47
2023-03-02T02:09:23.025Z,23.87
2023-03-02T02:11:49.375Z,22.90
2023-03-02T02:14:15.767Z,23.13
2023-03-02T02:16:42.099Z,22.50
2023-03-02T02:19:08.499Z,22.17
2023-03-02T02:21:34.837Z,22.33
2023-03-02T02:24:01.160Z,22.10
2023-03-02T02:26:27.525Z,21.00
2023-03-02T02:28:57.738Z,21.53
2023-03-02T02:31:26.797Z,21.63
2023-03-02T02:33:53.291Z,22.80
2023-03-02T02:36:19.676Z,21.93
2023-03-02T02:38:47.990Z,20.83
2023-03-02T02:41:14.358Z,21.57
2023-03-02T02:43:40.708Z,20.77
2023-03-02T02:46:07.090Z,19.90
2023-03-02T02:48:33.481Z,20.77
2023-03-02T02:51:03.397Z,20.67
2023-03-02T02:53:29.778Z,20.73
2023-03-02T02:55:56.082Z,21.37
2023-03-02T02:58:22.411Z,23.23
2023-03-02T03:00:48.761Z,21.63
2023-03-02T03:03:29.360Z,19.73
2023-03-02T03:05:55.718Z,20.73
2023-03-02T03:08:22.018Z,22.43
2023-03-02T03:10:48.383Z,21.60
2023-03-02T03:13:14.749Z,21.73
2023-03-02T03:15:41.151Z,20.53
2023-03-02T03:18:07.457Z,21.87
2023-03-02T03:20:33.755Z,21.70
2023-03-02T03:23:00.892Z,21.83
2023-03-02T03:25:27.235Z,20.80
2023-03-02T03:27:53.560Z,21.70
2023-03-02T03:30:19.870Z,19.70
2023-03-02T03:32:46.185Z,22.37
2023-03-02T03:35:12.922Z,21.47
2023-03-02T03:37:39.253Z,20.70
2023-03-02T03:40:06.213Z,21.07
2023-03-02T03:42:32.710Z,20.83
2023-03-02T03:44:59.030Z,20.87
2023-03-02T03:47:25.336Z,20.33
2023-03-02T03:49:51.662Z,20.77
2023-03-02T03:52:17.986Z,20.70
2023-03-02T03:54:44.305Z,19.80
2023-03-02T03:57:12.227Z,20.80
2023-03-02T03:59:38.562Z,19.17
2023-03-02T04:02:04.888Z,20.93
2023-03-02T04:04:31.214Z,19.00
2023-03-02T04:06:57.533Z,19.33
2023-03-02T04:09:23.912Z,21.37
2023-03-02T04:11:50.238Z,20.97
2023-03-02T04:14:16.551Z,20.07
2023-03-02T04:16:42.960Z,20.07
2023-03-02T04:19:09.724Z,20.93
2023-03-02T04:21:36.070Z,19.67
2023-03-02T04:24:02.364Z,19.20
2023-03-02T04:26:28.702Z,20.20
2023-03-02T04:28:55.006Z,20.77
2023-03-02T04:31:21.398Z,21.03
2023-03-02T04:33:47.723Z,21.90
2023-03-02T04:36:14.067Z,21.10
2023-03-02T04:38:40.410Z,20.40
2023-03-02T04:41:06.736Z,20.93
2023-03-02T04:43:33.053Z,19.03
2023-03-02T04:45:59.385Z,20.40
2023-03-02T04:48:25.859Z,20.17
2023-03-02T04:50:52.205Z,22.00
2023-03-02T04:53:18.544Z,19.70
2023-03-02T04:55:44.914Z,21.33
2023-03-02T04:58:11.235Z,20.47
2023-03-02T05:00:37.749Z,20.83
2023-03-02T05:03:04.137Z,21.20
2023-03-02T05:05:30.451Z,20.73
2023-03-02T05:07:58.586Z,20.70
2023-03-02T05:10:25.121Z,19.80
2023-03-02T05:12:54.887Z,19.13
2023-03-02T05:15:21.234Z,20.00
2023-03-02T05:17:47.541Z,20.73
2023-03-02T05:20:13.885Z,20.37
2023-03-02T05:22:40.202Z,19.57
2023-03-02T05:25:06.562Z,21.63
2023-03-02T05:27:32.886Z,19.40
2023-03-02T05:29:59.250Z,19.80
2023-03-02T05:32:25.582Z,18.23
2023-03-02T05:34:51.966Z,20.97
2023-03-02T05:37:18.540Z,21.47
2023-03-02T05:39:44.920Z,19.10
2023-03-02T05:42:11.224Z,19.60
2023-03-02T05:44:37.525Z,19.23
2023-03-02T05:47:03.887Z,20.40
2023-03-02T05:49:30.186Z,18.53
2023-03-02T05:51:56.598Z,18.70
2023-03-02T05:54:22.910Z,18.90
2023-03-02T05:56:50.340Z,20.07
2023-03-02T05:59:16.751Z,20.20
2023-03-02T06:01:43.185Z,18.20
2023-03-02T06:04:09.531Z,18.27
2023-03-02T06:06:36.187Z,18.73
2023-03-02T06:09:02.673Z,18.97
2023-03-02T06:11:30.328Z,20.00
2023-03-02T06:13:56.645Z,18.97
2023-03-02T06:16:23.013Z,19.57
2023-03-02T06:18:49.374Z,20.03
2023-03-02T06:21:15.738Z,19.17
2023-03-02T06:23:42.032Z,19.50
2023-03-02T06:26:08.378Z,19.53
2023-03-02T06:28:49.822Z,19.97
2023-03-02T06:31:18.184Z,20.20
2023-03-02T06:33:44.524Z,20.80
2023-03-02T06:36:12.733Z,21.40
2023-03-02T06:38:39.278Z,21.33
2023-03-02T06:41:05.597Z,21.67
2023-03-02T06:43:31.896Z,22.63
2023-03-02T06:46:00.900Z,23.53
2023-03-02T06:48:27.337Z,22.43
2023-03-02T06:50:53.651Z,21.63
2023-03-02T06:53:22.905Z,22.10
2023-03-02T06:55:49.269Z,21.70
2023-03-02T06:58:15.633Z,21.87
2023-03-02T07:00:41.936Z,20.93
2023-03-02T07:03:08.271Z,22.90
2023-03-02T07:05:35.933Z,22.20
2023-03-02T07:08:02.225Z,20.63
2023-03-02T07:10:28.970Z,21.77
2023-03-02T07:12:55.321Z,21.33
2023-03-02T07:15:22.180Z,21.13
2023-03-02T07:17:48.471Z,21.27
2023-03-02T07:20:14.810Z,20.27
2023-03-02T07:22:41.173Z,21.50
2023-03-02T07:25:07.481Z,21.40
2023-03-02T07:27:33.869Z,21.80
2023-03-02T07:30:00.200Z,21.73
2023-03-02T07:32:26.572Z,19.50
2023-03-02T07:34:52.991Z,20.35
2023-03-02T07:37:19.279Z,20.98
2023-03-02T07:39:45.581Z,21.57
2023-03-02T07:42:11.921Z,19.80
2023-03-02T07:44:38.244Z,21.07
2023-03-02T07:47:04.607Z,20.57
2023-03-02T07:49:31.052Z,20.50
2023-03-02T07:51:57.368Z,18.98
2023-03-02T07:54:26.573Z,19.02
2023-03-02T07:56:52.891Z,21.02
2023-03-02T07:59:19.222Z,20.05
2023-03-02T08:01:45.624Z,18.60
2023-03-02T08:04:11.948Z,20.92
2023-03-02T08:06:38.258Z,20.50
2023-03-02T08:09:04.626Z,20.02
2023-03-02T08:11:31.270Z,20.00
2023-03-02T08:13:57.877Z,20.42
2023-03-02T08:16:26.481Z,20.83
2023-03-02T08:18:52.883Z,20.37
2023-03-02T08:21:19.347Z,21.77
2023-03-02T08:23:45.782Z,20.62
2023-03-02T08:26:14.248Z,21.17
2023-03-02T08:28:42.093Z,21.58
2023-03-02T08:31:08.438Z,20.85
2023-03-02T08:33:34.939Z,22.65
2023-03-02T08:36:01.327Z,21.77
2023-03-02T08:38:27.733Z,21.67
2023-03-02T08:40:54.063Z,21.83
2023-03-02T08:43:20.477Z,21.23
2023-03-02T08:45:46.833Z,23.00
2023-03-02T08:48:13.170Z,24.12
2023-03-02T08:50:39.493Z,23.02
2023-03-02T08:53:05.796Z,24.08
2023-03-02T08:55:32.151Z,23.12
2023-03-02T08:57:58.470Z,22.02
2023-03-02T09:00:24.775Z,22.52
2023-03-02T09:02:51.089Z,22.60
2023-03-02T09:05:17.413Z,23.90
2023-03-02T09:07:43.738Z,24.75
2023-03-02T09:10:10.056Z,23.87
2023-03-02T09:12:36.387Z,24.25
2023-03-02T09:15:02.785Z,25.67
2023-03-02T09:17:29.152Z,24.17
2023-03-02T09:19:55.517Z,24.17
2023-03-02T09:22:21.817Z,24.25
2023-03-02T09:24:48.132Z,23.73
2023-03-02T09:27:14.440Z,24.10
2023-03-02T09:29:40.828Z,22.42
2023-03-02T09:32:07.279Z,23.75
2023-03-02T09:34:33.757Z,26.20
2023-03-02T09:37:00.112Z,24.20
2023-03-02T09:39:26.461Z,24.10
2023-03-02T09:41:52.762Z,23.23
2023-03-02T09:44:19.110Z,23.50
2023-03-02T09:46:45.454Z,22.75
2023-03-02T09:49:11.809Z,23.62
2023-03-02T09:51:39.349Z,23.05
2023-03-02T09:54:05.726Z,24.23
2023-03-02T09:56:32.382Z,22.90
2023-03-02T09:58:58.916Z,24.20
2023-03-02T10:01:25.243Z,23.48
2023-03-02T10:03:51.724Z,23.67
2023-03-02T10:06:18.148Z,25.02
2023-03-02T10:08:44.615Z,25.45
2023-03-02T10:11:10.950Z,26.77
2023-03-02T10:13:37.321Z,25.60
2023-03-02T10:16:03.770Z,25.27
2023-03-02T10:18:30.172Z,24.80
2023-03-02T10:20:56.577Z,24.30
2023-03-02T10:23:22.963Z,24.52
2023-03-02T10:25:49.271Z,24.25
2023-03-02T10:28:15.597Z,23.73
2023-03-02T10:30:42.063Z,22.60
2023-03-02T10:33:08.400Z,22.95
2023-03-02T10:35:34.767Z,24.30
2023-03-02T10:38:01.133Z,24.60
2023-03-02T10:40:27.462Z,24.17
2023-03-02T10:42:53.757Z,22.70
2023-03-02T10:45:20.048Z,22.83
2023-03-02T10:47:46.367Z,21.95
2023-03-02T10:50:12.689Z,19.52
2023-03-02T10:52:41.051Z,20.70
2023-03-02T10:55:08.760Z,19.83
2023-03-02T10:57:35.072Z,20.83
2023-03-02T11:00:01.511Z,19.02
2023-03-02T11:02:28.359Z,19.37
2023-03-02T11:04:57.355Z,18.42
2023-03-02T11:07:23.989Z,17.95
2023-03-02T11:09:50.292Z,17.42
2023-03-02T11:12:16.831Z,16.62
2023-03-02T11:14:43.470Z,16.83
2023-03-02T11:17:09.791Z,16.95
2023-03-02T11:19:36.371Z,15.30
2023-03-02T11:22:02.695Z,16.00
2023-03-02T11:24:28.997Z,16.55
2023-03-02T11:26:55.331Z,15.85
2023-03-02T11:29:22.754Z,15.52
2023-03-02T11:31:49.307Z,15.80
2023-03-02T11:34:17.951Z,14.07
2023-03-02T11:36:44.774Z,13.90
2023-03-02T11:39:11.111Z,14.40
2023-03-02T11:41:37.456Z,13.05
2023-03-02T11:44:03.825Z,12.57
2023-03-02T11:46:33.778Z,13.98
2023-03-02T11:49:00.245Z,12.52
2023-03-02T11:51:26.585Z,12.48
2023-03-02T11:53:53.057Z,14.60
2023-03-02T11:56:19.479Z,12.98
2023-03-02T11:58:45.795Z,12.20
2023-03-02T12:01:12.124Z,11.90
2023-03-02T12:03:38.595Z,11.15
2023-03-02T12:06:06.696Z,11.07
2023-03-02T12:08:33.533Z,11.80
2023-03-02T12:10:59.840Z,11.18
2023-03-02T12:13:26.254Z,9.68
2023-03-02T12:15:52.630Z,10.48
2023-03-02T12:18:18.993Z,11.27
2023-03-02T12:20:45.355Z,10.43
2023-03-02T12:23:11.739Z,11.30
2023-03-02T12:25:38.083Z,11.18
2023-03-02T12:28:04.516Z,11.23
2023-03-02T12:30:31.724Z,10.85
2023-03-02T12:32:58.033Z,10.65
2023-03-02T12:35:24.394Z,11.68
2023-03-02T12:37:51.934Z,11.43
2023-03-02T12:40:18.260Z,12.05
2023-03-02T12:42:44.596Z,12.63
2023-03-02T12:45:10.927Z,12.43
2023-03-02T12:47:37.306Z,13.32
2023-03-02T12:50:03.644Z,12.95
2023-03-02T12:52:30.065Z,13.30
2023-03-02T12:54:56.406Z,13.00
2023-03-02T12:57:22.720Z,13.05
2023-03-02T12:59:49.095Z,12.57
2023-03-02T13:02:15.476Z,11.23
2023-03-02T13:04:41.807Z,14.20
2023-03-02T13:07:08.188Z,12.73
2023-03-02T13:09:34.967Z,14.07
2023-03-02T13:12:02.237Z,14.02
2023-03-02T13:14:28.569Z,14.43
2023-03-02T13:16:54.964Z,14.50
2023-03-02T13:19:21.306Z,14.80
2023-03-02T13:21:47.672Z,13.65
2023-03-02T13:24:13.968Z,13.38
2023-03-02T13:26:40.508Z,13.95
2023-03-02T13:29:06.968Z,13.30
2023-03-02T13:31:33.365Z,14.73
2023-03-02T13:33:59.781Z,14.35
2023-03-02T13:36:26.105Z,15.35
2023-03-02T13:38:52.418Z,14.77
2023-03-02T13:41:18.795Z,14.25
2023-03-02T13:43:45.140Z,16.85
2023-03-02T13:46:11.534Z,15.38
2023-03-02T13:48:37.864Z,16.58
2023-03-02T13:51:04.446Z,15.43
2023-03-02T13:53:30.808Z,15.35
2023-03-02T13:55:57.105Z,15.15
2023-03-02T13:58:23.495Z,14.30
2023-03-02T14:00:49.904Z,15.15
2023-03-02T14:03:16.236Z,16.52
2023-03-02T14:05:42.563Z,16.08
2023-03-02T14:08:08.999Z,16.15
2023-03-02T14:10:35.360Z,14.60
2023-03-02T14:13:01.729Z,16.98
2023-03-02T14:15:28.095Z,15.30
2023-03-02T14:17:54.484Z,16.25
2023-03-02T14:20:20.833Z,15.98
2023-03-02T14:22:47.195Z,15.52
2023-03-02T14:25:13.566Z,16.15
2023-03-02T14:27:39.962Z,15.23
2023-03-02T14:30:06.283Z,14.13
2023-03-02T14:32:32.713Z,15.70
2023-03-02T14:34:59.136Z,14.45
2023-03-02T14:37:25.450Z,15.05
2023-03-02T14:39:54.219Z,15.35
2023-03-02T14:42:21.533Z,13.80
2023-03-02T14:44:47.899Z,13.70
2023-03-02T14:47:16.618Z,15.75
2023-03-02T14:49:42.947Z,16.08
2023-03-02T14:52:09.348Z,15.43
2023-03-02T14:54:35.662Z,15.63
2023-03-02T14:57:02.107Z,13.88
2023-03-02T14:59:28.444Z,14.65
2023-03-02T15:01:57.546Z,13.05
2023-03-02T15:04:24.535Z,12.65
2023-03-02T15:06:50.890Z,12.75
2023-03-02T15:09:17.579Z,12.90
2023-03-02T15:11:43.921Z,13.27
2023-03-02T15:14:10.265Z,12.05
2023-03-02T15:16:36.614Z,12.45
2023-03-02T15:19:03.484Z,12.02
2023-03-02T15:21:29.896Z,12.45
2023-03-02T15:23:56.305Z,13.52
2023-03-02T15:26:22.739Z,11.40
2023-03-02T15:28:49.073Z,11.90
2023-03-02T15:31:15.472Z,12.40
2023-03-02T15:33:41.945Z,11.77
2023-03-02T15:36:08.331Z,11.98
2023-03-02T15:38:35.856Z,12.05
2023-03-02T15:41:02.162Z,11.70
2023-03-02T15:43:28.502Z,11.75
2023-03-02T15:45:54.845Z,11.73
2023-03-02T15:48:21.165Z,11.68
2023-03-02T15:50:47.485Z,12.35
2023-03-02T15:53:13.804Z,11.12
2023-03-02T15:55:40.123Z,11.95
2023-03-02T15:58:08.295Z,12.95
2023-03-02T16:00:37.848Z,11.82
2023-03-02T16:03:04.919Z,12.45
2023-03-02T16:05:34.342Z,11.57
2023-03-02T16:08:00.735Z,12.95
2023-03-02T16:10:30.177Z,12.52
2023-03-02T16:12:56.500Z,12.40
2023-03-02T16:15:22.812Z,12.55
2023-03-02T16:17:49.201Z,12.32
2023-03-02T16:20:15.523Z,13.25
2023-03-02T16:22:41.885Z,12.40
2023-03-02T16:25:08.197Z,12.02
2023-03-02T16:27:34.504Z,11.70
2023-03-02T16:30:00.825Z,12.85
2023-03-02T16:32:27.194Z,13.00
2023-03-02T16:34:53.547Z,13.25
2023-03-02T16:37:19.884Z,12.35
2023-03-02T16:39:58.384Z,12.37
2023-03-02T16:42:24.797Z,10.95
2023-03-02T16:44:51.216Z,12.57
2023-03-02T16:47:17.583Z,11.88
2023-03-02T16:49:43.921Z,12.63
2023-03-02T16:52:10.341Z,11.43
2023-03-02T16:54:36.649Z,12.37
2023-03-02T16:57:04.905Z,12.13
2023-03-02T16:59:31.473Z,11.77
2023-03-02T17:02:00.891Z,11.95
2023-03-02T17:04:27.283Z,12.10
2023-03-02T17:07:01.440Z,11.80
2023-03-02T17:09:28.395Z,11.82
2023-03-02T17:11:54.784Z,13.45
2023-03-02T17:14:21.173Z,13.95
2023-03-02T17:16:47.539Z,13.02
2023-03-02T17:19:13.866Z,13.55
2023-03-02T17:21:41.897Z,12.85
2023-03-02T17:24:08.234Z,15.68
2023-03-02T17:26:34.602Z,13.13
2023-03-02T17:29:00.961Z,13.18
2023-03-02T17:31:27.263Z,14.50
2023-03-02T17:33:53.623Z,13.68
2023-03-02T17:36:19.941Z,13.48
2023-03-02T17:38:46.338Z,13.80
2023-03-02T17:41:12.716Z,14.43
2023-03-02T17:43:39.069Z,13.85
2023-03-02T17:46:05.765Z,14.30
2023-03-02T17:48:32.146Z,13.88
2023-03-02T17:50:58.481Z,15.25
2023-03-02T17:53:24.790Z,14.57
2023-03-02T17:55:51.121Z,13.73
2023-03-02T17:58:18.886Z,15.38
2023-03-02T18:00:45.222Z,15.13
2023-03-02T18:03:11.579Z,16.58
2023-03-02T18:05:39.849Z,20.05
2023-03-02T18:08:06.147Z,21.45
2023-03-02T18:10:32.441Z,21.30
2023-03-02T18:12:58.750Z,18.98
2023-03-02T18:15:27.234Z,18.37
2023-03-02T18:17:53.565Z,18.55
2023-03-02T18:20:19.899Z,18.65
2023-03-02T18:22:46.211Z,18.10
2023-03-02T18:25:12.535Z,17.75
2023-03-02T18:27:38.903Z,17.05
2023-03-02T18:30:05.221Z,16.17
2023-03-02T18:32:31.605Z,16.83
2023-03-02T18:34:57.930Z,17.00
2023-03-02T18:37:24.270Z,16.95
2023-03-02T18:39:50.624Z,17.23
2023-03-02T18:42:16.928Z,18.30
2023-03-02T18:44:43.286Z,17.33
2023-03-02T18:47:09.631Z,16.33
2023-03-02T18:49:38.471Z,18.08
2023-03-02T18:52:06.959Z,17.35
2023-03-02T18:54:33.281Z,18.87
2023-03-02T18:57:00.101Z,18.23
2023-03-02T18:59:26.450Z,17.65
2023-03-02T19:01:52.762Z,19.00
2023-03-02T19:04:19.776Z,20.70
2023-03-02T19:06:46.113Z,18.35
2023-03-02T19:09:12.458Z,17.35
2023-03-02T19:11:38.841Z,16.10
2023-03-02T19:14:05.151Z,18.05
2023-03-02T19:16:31.531Z,17.37
2023-03-02T19:18:57.926Z,14.85
2023-03-02T19:21:24.233Z,15.18
2023-03-02T19:23:50.599Z,15.15
2023-03-02T19:26:16.961Z,15.18
2023-03-02T19:28:43.319Z,15.35
2023-03-02T19:31:11.329Z,14.30
2023-03-02T19:33:37.797Z,13.75
2023-03-02T19:36:04.183Z,15.20
2023-03-02T19:38:30.538Z,13.45
2023-03-02T19:40:57.264Z,14.73
2023-03-02T19:43:23.583Z,14.20
2023-03-02T19:45:49.913Z,14.13
2023-03-02T19:48:16.256Z,14.93
2023-03-02T19:50:43.446Z,15.40
2023-03-02T19:53:10.601Z,14.63
2023-03-02T19:55:36.983Z,14.50
2023-03-02T19:58:05.355Z,14.80
2023-03-02T20:00:31.713Z,15.55
2023-03-02T20:02:58.354Z,14.30
2023-03-02T20:05:26.048Z,15.93
2023-03-02T20:07:52.363Z,15.63
2023-03-02T20:10:18.664Z,15.63
2023-03-02T20:12:44.966Z,14.98
2023-03-02T20:15:11.329Z,16.00
2023-03-02T20:17:37.628Z,16.77
2023-03-02T20:20:05.740Z,16.73
2023-03-02T20:22:32.046Z,16.92
2023-03-02T20:24:58.499Z,16.75
2023-03-02T20:27:24.841Z,16.60
2023-03-02T20:29:51.146Z,18.23
2023-03-02T20:32:17.559Z,17.52
2023-03-02T20:34:43.927Z,16.27
2023-03-02T20:37:10.257Z,17.70
2023-03-02T20:39:36.662Z,18.27
2023-03-02T20:42:03.076Z,17.15
2023-03-02T20:44:32.594Z,18.00
2023-03-02T20:46:59.063Z,18.12
2023-03-02T20:49:25.406Z,17.20
2023-03-02T20:51:54.633Z,17.02
2023-03-02T20:54:20.945Z,19.27
2023-03-02T20:56:47.299Z,18.37
2023-03-02T20:59:13.598Z,19.92
2023-03-02T21:01:39.944Z,21.70
2023-03-02T21:04:06.327Z,20.17
2023-03-02T21:06:34.578Z,19.30
2023-03-02T21:09:00.883Z,19.35
2023-03-02T21:11:27.191Z,19.55
2023-03-02T21:13:55.376Z,22.95
2023-03-02T21:16:21.755Z,21.80
2023-03-02T21:18:48.069Z,25.35
2023-03-02T21:21:14.361Z,22.45
2023-03-02T21:23:41.934Z,22.25
2023-03-02T21:26:09.268Z,21.77
2023-03-02T21:28:35.632Z,22.73
2023-03-02T21:31:01.976Z,23.08
2023-03-02T21:33:28.328Z,23.10
2023-03-02T21:35:54.629Z,22.83
2023-03-02T21:38:20.947Z,21.80
2023-03-02T21:40:47.321Z,22.52
2023-03-02T21:43:13.648Z,23.30
2023-03-02T21:45:39.950Z,23.38
2023-03-02T21:48:06.313Z,21.67
2023-03-02T21:50:32.803Z,21.95
2023-03-02T21:52:59.470Z,22.70
2023-03-02T21:55:25.797Z,22.83
2023-03-02T21:57:52.113Z,22.08
2023-03-02T22:00:18.541Z,22.55
2023-03-02T22:02:44.894Z,22.60
2023-03-02T22:05:11.180Z,24.05
2023-03-02T22:07:37.495Z,24.25
2023-03-02T22:10:03.870Z,25.30
2023-03-02T22:12:30.304Z,22.35
2023-03-02T22:14:56.794Z,22.48
2023-03-02T22:17:24.634Z,23.42
2023-03-02T22:19:51.165Z,24.52
2023-03-02T22:22:18.007Z,22.73
2023-03-02T22:24:44.317Z,22.45
2023-03-02T22:27:10.637Z,24.83
2023-03-02T22:29:36.936Z,23.77
2023-03-02T22:32:03.347Z,21.65
2023-03-02T22:34:29.709Z,23.35
2023-03-02T22:36:56.010Z,23.10
2023-03-02T22:39:22.338Z,24.08
2023-03-02T22:41:48.652Z,22.98
2023-03-02T22:44:15.289Z,23.55
2023-03-02T22:46:41.733Z,23.83
2023-03-02T22:49:08.049Z,22.75
2023-03-02T22:51:34.360Z,22.75
2023-03-02T22:54:00.668Z,24.35
2023-03-02T22:56:27.384Z,23.02
2023-03-02T22:58:53.715Z,23.73
2023-03-02T23:01:21.088Z,23.05
2023-03-02T23:03:47.522Z,23.17
2023-03-02T23:06:13.888Z,23.48
2023-03-02T23:08:40.462Z,23.40
2023-03-02T23:11:06.855Z,22.45
2023-03-02T23:13:33.153Z,23.33
2023-03-02T23:15:59.499Z,24.02
2023-03-02T23:18:25.834Z,24.25
2023-03-02T23:20:52.154Z,24.05
2023-03-02T23:23:18.512Z,26.02
2023-03-02T23:25:44.842Z,26.67
2023-03-02T23:28:11.233Z,27.15
2023-03-02T23:30:37.568Z,27.62
2023-03-02T23:33:03.873Z,25.10
2023-03-02T23:35:30.449Z,26.73
2023-03-02T23:37:56.802Z,27.87
2023-03-02T23:40:23.203Z,26.62
2023-03-02T23:42:49.535Z,26.40
2023-03-02T23:45:16.008Z,28.85
2023-03-02T23:47:42.443Z,28.90
2023-03-02T23:50:08.994Z,31.37
2023-03-02T23:52:35.293Z,31.20
2023-03-02T23:55:01.603Z,33.53
2023-03-02T23:57:27.917Z,33.67
2023-03-02T23:59:54.270Z,34.42
